Waycross, GA

1:18 AM EDT on September 20, 2014 (GMT -0400)
Waycross-Ware County | Change Station
CLOSE
Current Station
Airport
Location: Waycross,
Elevation: 151 ft
Nearby Weather Stations

Elev 151 ft 31.25 °N, 82.40 °W | Updated 23 minutes ago

Partly Cloudy
Partly Cloudy
73 °F
Feels Like 73 °F
N
5
Wind Variable Wind from ENE

Today
High -- | Low -- °F
--% Chance of Precip.
Yesterday
High -- | Low -- °F
Precip. -- in
7:16 AM 7:28 PM
Waning Crescent, 14% visible
Pressure 30.03 in
Visibility 10.0 miles
Clouds Clear
Dew Point 72 °F
Humidity 95%
Rainfall 0.00 in
Snow Depth Not available.
UV 0 out of 12
Pollen 6.40 out of 12
Air Quality Not available.
Flu Activity Not available.
METAR KAYS 200455Z AUTO 06004KT 10SM CLR 23/22 A3003 RMK AO2 T02300222 403140230

More Conditions Fewer Conditions

Pressure 30.03 in
Visibility 10.0 miles
Clouds Clear
Dew Point 72 °F
Humidity 95%
Rainfall 0.00 in
Snow Depth Not available.
UV 0 out of 12
Pollen 6.40 out of 12
Air Quality Not available.
Flu Activity Not available.
METAR KAYS 200455Z AUTO 06004KT 10SM CLR 23/22 A3003 RMK AO2 T02300222 403140230

More Conditions Fewer Conditions

10-Day Weather Forecast

Almanac

Astronomy

Sep. 20, 2014 Rise Set
Actual Time 7:16 AM EDT 7:28 PM EDT
Civil Twilight 6:52 AM EDT 7:52 PM EDT
Nautical Twilight 6:24 AM EDT 8:21 PM EDT
Astronomical Twilight 5:55 AM EDT 8:49 PM EDT
Moon 4:05 AM EDT 5:22 PM EDT
Length of Visible Light 13h 00m
Length of Day
12h 12m
Tomorrow will be 1m 53s shorter.
Waning Crescent, 14% of the Moon is Illuminated
Today
Waning Crescent
Sep 24
New
Oct 1
First Quarter
Oct 8
Full
Oct 15
Last Quarter

Today's Extremes

State Highs State Lows

Community

WunderPhotos

Upload Photos

1,754,777 photos uploaded!

WunderBlogs® & News

Nearby

Snow Depth

Station Depth Elevation
No new snow has been reported.

Earthquake Activity

City Distance Mag. Time & Date
No recent earthquake activity has been reported nearby.
Minimum magnitude displayed is 2.5.

Coastal Water Temperatures

Place Temperature
No Stations Reporting

Nearby Weather Stations